Nearby METAR Reports

Aktualna pogoda na lotniskach (dane METAR)

 

EPGD - Gdansk/Rebiechow, Poland
Distance from station: ENE 27mi, 44km
Updated: Sat, 29-Jan-2022 1:00am PST
Overcast
Overcast
 Wind from SW
Wind: SW 15 mph , 24 km/h
Temperature: 34°F , 1°C
Wind Chill: 24°F , -4°C
Dew Point: 30°F , -1°C
Humidity: 87%
Barometer: 29.85 inHg , 1011 hPa
Clouds: Overcast
Visibility: 6 miles , 10 km
Cloud details: Overcast 800 ft
2022/01/29 09:00 EPGD 290900Z 22013KT 9999 OVC008 01/M01 Q1011
EPSC - Szczecin/Golenio, Poland
Distance from station: WSW 128mi, 205km
Updated: Sat, 29-Jan-2022 1:00am PST
Light rain, Mist, Overcast
Light rain, Mist, Overcast
 Wind from SSW
Wind: SSW 13 mph , 20 km/h
Temperature: 37°F , 3°C
Wind Chill: 29°F , -2°C
Dew Point: 36°F , 2°C
Humidity: 93%
Barometer: 29.91 inHg , 1013 hPa
Summary: Light rain, Mist
Clouds: Overcast
Visibility: 3 miles , 5 km
Cloud details: Overcast 400 ft
2022/01/29 09:00 EPSC 290900Z 20011KT 160V260 5000 -RA BR OVC004 03/02 Q1013
 
EPPO - Poznan/Lawica, Poland
Distance from station: SSW 131mi, 210km
Updated: Sat, 29-Jan-2022 1:00am PST
Light snow, Rain, Mist, Overcast
Light snow, Rain, Mist, Overcast
 Wind from SW
Wind: SW 12 mph , 19 km/h
Temperature: 34°F , 1°C
Wind Chill: 25°F , -4°C
Dew Point: 32°F , 0°C
Humidity: 93%
Barometer: 30.03 inHg , 1017 hPa
Summary: Light snow, Rain, Mist
Clouds: Overcast
Visibility: 3 miles , 5 km
Cloud details: Overcast 400 ft
2022/01/29 09:00 EPPO 290900Z 22010KT 5000 -SNRA BR OVC004 01/00 Q1017
EPLL - Lodz/Lublinek, Poland
Distance from station: SSE 184mi, 296km
Updated: Sat, 29-Jan-2022 1:00am PST
Mostly Cloudy
Mostly Cloudy
 Wind from SW
Wind: SW 8 mph , 13 km/h
Temperature: 32°F , 0°C
Wind Chill: 25°F , -4°C
Dew Point: 30°F , -1°C
Humidity: 93%
Barometer: 30.12 inHg , 1020 hPa
Clouds: Mostly Cloudy
Visibility: 6 miles , 10 km
Cloud details: Mostly Cloudy 3000 ft
2022/01/29 09:00 EPLL 290900Z 22007KT 190V250 9999 BKN030 00/M01 Q1020
 
EPWA - Warsaw/Okecie, Poland
Distance from station: SE 191mi, 307km
Updated: Sat, 29-Jan-2022 1:00am PST
Clear
Clear
 Wind from WSW
Wind: WSW 9 mph , 15 km/h
Temperature: 34°F , 1°C
Wind Chill: 27°F , -3°C
Dew Point: 28°F , -2°C
Humidity: 81%
Barometer: 30.09 inHg , 1019 hPa
Summary: Clear
Visibility: greater than 7 miles , 10 km
2022/01/29 09:00 EPWA 290900Z 25008KT CAVOK 01/M02 Q1019 NOSIG
EPWR - Wroclaw/Strachow, Poland
Distance from station: S 219mi, 352km
Updated: Sat, 29-Jan-2022 1:00am PST
Light rain, Snow, Mostly cloudy
Light rain, Snow, Mostly cloudy
 Wind from SSW
Wind: SSW 8 mph , 13 km/h
Temperature: 36°F , 2°C
Wind Chill: 30°F , -1°C
Dew Point: 30°F , -1°C
Humidity: 81%
Barometer: 30.15 inHg , 1021 hPa
Summary: Light rain, Snow
Clouds: Mostly Cloudy
Visibility: 6 miles , 10 km
Cloud details: Few Clouds 800 ft
Mostly Cloudy 2300 ft
2022/01/29 09:00 EPWR 290900Z 20007KT 9999 -RASN FEW008 BKN023 02/M01 Q1021

Metar display script from Saratoga-Weather.org